Time;durP1;ratioP1;P1;durP2;ratioP2;P2;SDS_P1;SDS_P2;PMS_P1;PMS_P2;Temp;Humidity;BMP_temperature;BMP_pressure;BME280_temperature;BME280_humidity;BME280_pressure;Samples;Min_cycle;Max_cycle;Signal;HPM_P1;HPM_P2
2022/08/19 00:01:30;;;;;;;;;;;;;;;;;;5046722;28;19975;-57
2022/08/19 00:03:56;;;;;;;;;;;;;;;;;;5029400;28;19924;-57
2022/08/19 00:06:22;;;;;;;;;;;;;;;;;;5046633;28;20256;-57
2022/08/19 00:08:48;;;;;;;;;;;;;;;;;;5046729;28;19925;-57
2022/08/19 00:11:14;;;;;;;;;;;;;;;;;;5045563;28;19932;-57
2022/08/19 00:13:40;;;;;;;;;;;;;;;;;;5046472;28;19925;-58
2022/08/19 00:16:06;;;;;;;;;;;;;;;;;;5046937;28;19928;-57
2022/08/19 00:18:32;;;;;;;;;;;;;;;;;;5046417;28;19972;-57
2022/08/19 00:20:59;;;;;;;;;;;;;;;;;;5046573;28;19960;-57
2022/08/19 00:23:25;;;;;;;;;;;;;;;;;;5046049;28;19925;-57
2022/08/19 00:25:51;;;;;;;;;;;;;;;;;;5045138;28;19931;-57
2022/08/19 00:28:17;;;;;;;;;;;;;;;;;;5046002;28;19921;-57
2022/08/19 00:30:43;;;;;;;;;;;;;;;;;;5046291;28;19936;-58
2022/08/19 00:33:09;;;;;;;;;;;;;;;;;;5046478;28;19959;-58
2022/08/19 00:35:37;;;;;;;;;;;;;;;;;;5046586;28;20387;-57
2022/08/19 00:38:03;;;;;;;;;;;;;;;;;;5046345;28;19963;-57
2022/08/19 00:40:30;;;;;;;;;;;;;;;;;;5045365;28;19924;-57
2022/08/19 00:42:56;;;;;;;;;;;;;;;;;;5045147;28;19924;-57
2022/08/19 00:45:22;;;;;;;;;;;;;;;;;;5046090;28;19925;-58
2022/08/19 00:47:48;;;;;;;;;;;;;;;;;;5046250;28;19932;-57
2022/08/19 00:50:14;;;;;;;;;;;;;;;;;;5045769;28;19987;-57
2022/08/19 00:52:44;;;;;;;;;;;;;;;;;;5046004;28;19983;-58
2022/08/19 00:55:11;;;;;;;;;;;;;;;;;;5045738;28;20007;-58
2022/08/19 00:57:37;;;;;;;;;;;;;;;;;;5045197;28;19925;-57
2022/08/19 01:00:04;;;;;;;;;;;;;;;;;;5045778;28;19932;-57
2022/08/19 01:02:30;;;;;;;;;;;;;;;;;;5045908;28;19939;-57
2022/08/19 01:04:56;;;;;;;;;;;;;;;;;;5045792;28;19932;-57
2022/08/19 01:07:22;;;;;;;;;;;;;;;;;;5045402;28;19929;-57
2022/08/19 01:09:48;;;;;;;;;;;;;;;;;;5045418;28;20236;-57
2022/08/19 01:12:14;;;;;;;;;;;;;;;;;;5043938;28;20499;-57
2022/08/19 01:14:40;;;;;;;;;;;;;;;;;;5045252;28;19968;-58
2022/08/19 01:17:06;;;;;;;;;;;;;;;;;;5045830;28;19917;-57
2022/08/19 01:19:32;;;;;;;;;;;;;;;;;;5045337;28;20019;-57
2022/08/19 01:21:58;;;;;;;;;;;;;;;;;;5045512;28;19984;-57
2022/08/19 01:24:24;;;;;;;;;;;;;;;;;;5027483;28;19925;-57
2022/08/19 01:26:50;;;;;;;;;;;;;;;;;;5044453;28;19932;-57
2022/08/19 01:29:16;;;;;;;;;;;;;;;;;;5045002;28;20394;-57
2022/08/19 01:31:42;;;;;;;;;;;;;;;;;;5045256;28;19935;-58
2022/08/19 01:34:08;;;;;;;;;;;;;;;;;;5045730;28;19925;-57
2022/08/19 01:36:34;;;;;;;;;;;;;;;;;;5045321;28;19925;-57
2022/08/19 01:39:00;;;;;;;;;;;;;;;;;;5045010;28;20275;-57
2022/08/19 01:41:26;;;;;;;;;;;;;;;;;;5044157;28;19925;-57
2022/08/19 01:43:52;;;;;;;;;;;;;;;;;;5044615;28;19971;-57
2022/08/19 01:46:18;;;;;;;;;;;;;;;;;;5044726;28;20359;-57
2022/08/19 01:48:44;;;;;;;;;;;;;;;;;;5026923;28;19920;-57
2022/08/19 01:51:10;;;;;;;;;;;;;;;;;;5044601;28;19924;-57
2022/08/19 01:53:36;;;;;;;;;;;;;;;;;;5045392;28;20267;-57
2022/08/19 01:56:02;;;;;;;;;;;;;;;;;;5044385;28;19932;-58
2022/08/19 01:58:30;;;;;;;;;;;;;;;;;;5044104;28;20390;-57
2022/08/19 02:00:56;;;;;;;;;;;;;;;;;;5044694;28;19990;-57
2022/08/19 02:03:22;;;;;;;;;;;;;;;;;;5044531;28;20283;-57
2022/08/19 02:05:50;;;;;;;;;;;;;;;;;;5044527;28;19925;-58
2022/08/19 02:08:16;;;;;;;;;;;;;;;;;;5044480;28;20443;-58
2022/08/19 02:10:42;;;;;;;;;;;;;;;;;;5043966;28;19928;-58
2022/08/19 02:13:08;;;;;;;;;;;;;;;;;;5043775;28;19931;-57
2022/08/19 02:15:34;;;;;;;;;;;;;;;;;;5044872;28;19982;-57
2022/08/19 02:18:00;;;;;;;;;;;;;;;;;;5044506;28;19973;-57
2022/08/19 02:20:26;;;;;;;;;;;;;;;;;;5043976;28;20439;-57
2022/08/19 02:22:52;;;;;;;;;;;;;;;;;;5044412;28;19932;-57
2022/08/19 02:25:18;;;;;;;;;;;;;;;;;;5044008;28;19924;-57
2022/08/19 02:27:44;;;;;;;;;;;;;;;;;;5043078;28;19932;-57
2022/08/19 02:30:10;;;;;;;;;;;;;;;;;;5044116;28;19925;-58
2022/08/19 02:32:36;;;;;;;;;;;;;;;;;;5044425;28;19925;-57
2022/08/19 02:35:03;;;;;;;;;;;;;;;;;;5043972;28;20446;-57
2022/08/19 02:40:14;;;;;;;;;;;;;;;;;;5043793;28;19928;-57
2022/08/19 02:42:42;;;;;;;;;;;;;;;;;;5043377;28;19925;-58
2022/08/19 02:45:09;;;;;;;;;;;;;;;;;;5044658;28;19925;-57
2022/08/19 02:47:35;;;;;;;;;;;;;;;;;;5044347;28;20023;-57
2022/08/19 02:50:01;;;;;;;;;;;;;;;;;;5043674;28;19928;-57
2022/08/19 02:52:27;;;;;;;;;;;;;;;;;;5043543;28;19925;-57
2022/08/19 02:54:55;;;;;;;;;;;;;;;;;;5044184;28;19924;-57
2022/08/19 02:57:21;;;;;;;;;;;;;;;;;;5042976;28;19929;-57
2022/08/19 02:59:47;;;;;;;;;;;;;;;;;;5044136;28;19925;-57
2022/08/19 03:02:13;;;;;;;;;;;;;;;;;;5043460;28;19936;-57
2022/08/19 03:04:39;;;;;;;;;;;;;;;;;;5043968;28;19925;-57
2022/08/19 03:07:07;;;;;;;;;;;;;;;;;;5043532;28;20406;-57
2022/08/19 03:09:33;;;;;;;;;;;;;;;;;;5043606;28;19925;-57
2022/08/19 03:11:59;;;;;;;;;;;;;;;;;;5042728;28;20680;-57
2022/08/19 03:14:24;;;;;;;;;;;;;;;;;;5043480;28;20474;-57
2022/08/19 03:16:50;;;;;;;;;;;;;;;;;;5043594;28;19925;-57
2022/08/19 03:19:16;;;;;;;;;;;;;;;;;;5043710;28;19960;-57
2022/08/19 03:21:44;;;;;;;;;;;;;;;;;;5043400;28;19998;-57
2022/08/19 03:24:10;;;;;;;;;;;;;;;;;;5043791;28;19929;-57
2022/08/19 03:26:36;;;;;;;;;;;;;;;;;;5025382;28;20486;-58
2022/08/19 03:29:02;;;;;;;;;;;;;;;;;;5043566;28;19925;-57
2022/08/19 03:31:28;;;;;;;;;;;;;;;;;;5043270;28;19925;-57
2022/08/19 03:33:54;;;;;;;;;;;;;;;;;;5043699;28;19924;-57
2022/08/19 03:36:20;;;;;;;;;;;;;;;;;;5043441;28;19978;-57
2022/08/19 03:38:47;;;;;;;;;;;;;;;;;;5043265;28;19932;-57
2022/08/19 03:41:14;;;;;;;;;;;;;;;;;;5042181;28;19954;-57
2022/08/19 03:43:40;;;;;;;;;;;;;;;;;;5025382;28;19925;-58
2022/08/19 03:46:06;;;;;;;;;;;;;;;;;;5043994;28;19932;-57
2022/08/19 03:48:32;;;;;;;;;;;;;;;;;;5043278;28;19921;-57
2022/08/19 03:50:59;;;;;;;;;;;;;;;;;;5043296;28;20019;-57
2022/08/19 03:53:25;;;;;;;;;;;;;;;;;;5042969;28;20060;-57
2022/08/19 03:55:52;;;;;;;;;;;;;;;;;;5042518;28;19974;-57
2022/08/19 03:58:18;;;;;;;;;;;;;;;;;;5043109;28;20302;-57
2022/08/19 04:00:44;;;;;;;;;;;;;;;;;;5043578;28;19921;-58
2022/08/19 04:03:10;;;;;;;;;;;;;;;;;;5046673;28;20078;-58
2022/08/19 04:05:37;;;;;;;;;;;;;;;;;;5047159;28;19925;-57
2022/08/19 04:08:03;;;;;;;;;;;;;;;;;;5046660;28;19924;-57
2022/08/19 04:10:29;;;;;;;;;;;;;;;;;;5045888;28;20309;-57
2022/08/19 04:12:55;;;;;;;;;;;;;;;;;;5046616;28;19932;-57
2022/08/19 04:15:21;;;;;;;;;;;;;;;;;;5046650;28;19924;-57
2022/08/19 04:17:47;;;;;;;;;;;;;;;;;;5046825;28;19924;-57
2022/08/19 04:20:13;;;;;;;;;;;;;;;;;;5046294;28;20714;-58
2022/08/19 04:22:39;;;;;;;;;;;;;;;;;;5028282;28;20390;-58
2022/08/19 04:25:05;;;;;;;;;;;;;;;;;;5046785;28;19925;-57
2022/08/19 04:27:33;;;;;;;;;;;;;;;;;;5046145;28;19925;-57
2022/08/19 04:29:59;;;;;;;;;;;;;;;;;;5046548;28;20458;-57
2022/08/19 04:32:25;;;;;;;;;;;;;;;;;;5046298;28;19929;-57
2022/08/19 04:34:51;;;;;;;;;;;;;;;;;;5046595;28;19924;-57
2022/08/19 04:37:17;;;;;;;;;;;;;;;;;;5045724;28;20465;-57
2022/08/19 04:42:39;;;;;;;;;;;;;;;;;;5046007;28;20298;-57
2022/08/19 04:45:06;;;;;;;;;;;;;;;;;;5046131;28;20038;-57
2022/08/19 04:47:32;;;;;;;;;;;;;;;;;;5045909;28;20024;-57
2022/08/19 04:49:58;;;;;;;;;;;;;;;;;;5045925;28;19925;-57
2022/08/19 04:52:24;;;;;;;;;;;;;;;;;;5045823;28;19925;-57
2022/08/19 04:54:50;;;;;;;;;;;;;;;;;;5046173;28;19924;-57
2022/08/19 04:57:16;;;;;;;;;;;;;;;;;;5045223;28;20401;-57
2022/08/19 04:59:42;;;;;;;;;;;;;;;;;;5045579;28;19928;-57
2022/08/19 05:02:08;;;;;;;;;;;;;;;;;;5046258;28;19928;-57
2022/08/19 05:04:35;;;;;;;;;;;;;;;;;;5046318;28;19932;-57
2022/08/19 05:07:01;;;;;;;;;;;;;;;;;;5045721;28;19925;-58
2022/08/19 05:09:27;;;;;;;;;;;;;;;;;;5045719;28;19925;-57
2022/08/19 05:11:53;;;;;;;;;;;;;;;;;;5044573;28;19925;-57
2022/08/19 05:14:20;;;;;;;;;;;;;;;;;;5045245;28;20364;-57
2022/08/19 05:16:46;;;;;;;;;;;;;;;;;;5045611;28;19964;-57
2022/08/19 05:24:42;;;;;;;;;;;;;;;;;;5045850;28;19929;-58
2022/08/19 05:27:08;;;;;;;;;;;;;;;;;;5045344;28;19917;-57
2022/08/19 05:29:34;;;;;;;;;;;;;;;;;;5045476;28;19975;-57
2022/08/19 05:32:00;;;;;;;;;;;;;;;;;;5045243;28;20011;-57
2022/08/19 05:34:26;;;;;;;;;;;;;;;;;;5045181;28;19948;-57
2022/08/19 05:36:55;;;;;;;;;;;;;;;;;;5045011;28;19924;-57
2022/08/19 05:39:21;;;;;;;;;;;;;;;;;;5044648;28;19943;-57
2022/08/19 05:41:47;;;;;;;;;;;;;;;;;;5044576;28;20430;-57
2022/08/19 05:44:13;;;;;;;;;;;;;;;;;;5044878;28;20011;-58
2022/08/19 05:46:39;;;;;;;;;;;;;;;;;;5044862;28;19933;-58
2022/08/19 05:49:05;;;;;;;;;;;;;;;;;;5045513;28;19931;-57
2022/08/19 05:51:32;;;;;;;;;;;;;;;;;;5044518;28;20388;-57
2022/08/19 05:53:58;;;;;;;;;;;;;;;;;;5045111;28;19970;-57
2022/08/19 05:56:24;;;;;;;;;;;;;;;;;;5043952;28;19964;-58
2022/08/19 05:58:50;;;;;;;;;;;;;;;;;;5044781;28;19921;-57
2022/08/19 06:01:16;;;;;;;;;;;;;;;;;;5044442;28;20459;-57
2022/08/19 06:03:42;;;;;;;;;;;;;;;;;;5044864;28;19950;-58
2022/08/19 06:06:08;;;;;;;;;;;;;;;;;;5044832;28;19936;-57
2022/08/19 06:08:35;;;;;;;;;;;;;;;;;;5044786;28;19974;-57
2022/08/19 06:11:01;;;;;;;;;;;;;;;;;;5043800;28;19924;-58
2022/08/19 06:13:27;;;;;;;;;;;;;;;;;;5044205;28;19925;-57
2022/08/19 06:15:53;;;;;;;;;;;;;;;;;;5044469;28;19961;-57
2022/08/19 06:18:19;;;;;;;;;;;;;;;;;;5044320;28;19925;-58
2022/08/19 06:20:45;;;;;;;;;;;;;;;;;;5044335;28;19925;-57
2022/08/19 06:23:12;;;;;;;;;;;;;;;;;;5043888;28;19925;-57
2022/08/19 06:25:38;;;;;;;;;;;;;;;;;;5037200;28;20605;-57
2022/08/19 06:28:04;;;;;;;;;;;;;;;;;;5033438;28;19943;-58
2022/08/19 06:30:30;;;;;;;;;;;;;;;;;;5033665;28;20705;-57
2022/08/19 06:32:56;;;;;;;;;;;;;;;;;;5032159;28;19932;-57
2022/08/19 06:35:22;;;;;;;;;;;;;;;;;;5015770;28;19921;-57
2022/08/19 06:37:48;;;;;;;;;;;;;;;;;;5033696;28;20000;-57
2022/08/19 06:40:14;;;;;;;;;;;;;;;;;;5031289;28;19932;-58
2022/08/19 06:42:40;;;;;;;;;;;;;;;;;;5034417;28;19925;-58
2022/08/19 06:45:08;;;;;;;;;;;;;;;;;;5033493;28;21466;-58
2022/08/19 06:47:34;;;;;;;;;;;;;;;;;;5032907;28;19933;-58
2022/08/19 06:56:02;;;;;;;;;;;;;;;;;;5043386;28;19920;-59
2022/08/19 06:58:31;;;;;;;;;;;;;;;;;;5043817;28;19925;-58
2022/08/19 07:01:00;;;;;;;;;;;;;;;;;;5040483;28;19979;-59
2022/08/19 07:03:28;;;;;;;;;;;;;;;;;;5023520;28;20342;-59
2022/08/19 07:05:54;;;;;;;;;;;;;;;;;;5025441;28;20302;-59
2022/08/19 07:08:20;;;;;;;;;;;;;;;;;;5024104;28;19979;-58
2022/08/19 07:10:46;;;;;;;;;;;;;;;;;;5023391;28;19925;-58
2022/08/19 07:13:12;;;;;;;;;;;;;;;;;;5023730;28;19932;-59
2022/08/19 07:15:38;;;;;;;;;;;;;;;;;;5031861;28;19933;-59
2022/08/19 07:18:04;;;;;;;;;;;;;;;;;;5033073;28;19921;-59
2022/08/19 07:20:31;;;;;;;;;;;;;;;;;;5034903;28;19954;-59
2022/08/19 07:22:57;;;;;;;;;;;;;;;;;;5034918;28;20015;-59
2022/08/19 07:25:23;;;;;;;;;;;;;;;;;;5040007;28;20055;-60
2022/08/19 07:27:50;;;;;;;;;;;;;;;;;;5043914;28;20059;-59
2022/08/19 07:30:16;;;;;;;;;;;;;;;;;;5043424;28;19932;-60
2022/08/19 07:32:42;;;;;;;;;;;;;;;;;;5043537;28;19925;-58
2022/08/19 07:35:09;;;;;;;;;;;;;;;;;;5044370;28;19936;-59
2022/08/19 07:37:36;;;;;;;;;;;;;;;;;;5047733;28;20378;-59
2022/08/19 07:40:02;;;;;;;;;;;;;;;;;;5028931;28;19925;-60
2022/08/19 07:42:29;;;;;;;;;;;;;;;;;;5048086;28;20204;-60
2022/08/19 07:44:56;;;;;;;;;;;;;;;;;;5047604;28;19931;-59
2022/08/19 07:47:22;;;;;;;;;;;;;;;;;;5047004;28;19921;-59
2022/08/19 07:49:48;;;;;;;;;;;;;;;;;;5028868;28;19925;-59
2022/08/19 07:52:16;;;;;;;;;;;;;;;;;;5046299;28;19925;-59
2022/08/19 07:54:42;;;;;;;;;;;;;;;;;;5046659;28;20003;-59
2022/08/19 07:57:08;;;;;;;;;;;;;;;;;;5047534;28;20012;-59
2022/08/19 07:59:34;;;;;;;;;;;;;;;;;;5047566;28;20546;-59
2022/08/19 08:02:00;;;;;;;;;;;;;;;;;;5046874;28;19921;-59
2022/08/19 08:09:56;;;;;;;;;;;;;;;;;;5046335;28;19924;-59
2022/08/19 08:12:23;;;;;;;;;;;;;;;;;;5045997;28;19925;-59
2022/08/19 08:14:50;;;;;;;;;;;;;;;;;;5047037;28;19935;-59
2022/08/19 08:17:16;;;;;;;;;;;;;;;;;;5029624;28;19932;-60
2022/08/19 08:19:42;;;;;;;;;;;;;;;;;;5024534;28;20029;-59
2022/08/19 08:22:08;;;;;;;;;;;;;;;;;;5007060;28;19984;-59
2022/08/19 08:24:35;;;;;;;;;;;;;;;;;;5023772;28;19937;-59
2022/08/19 08:27:01;;;;;;;;;;;;;;;;;;5023204;28;19932;-60
2022/08/19 08:29:27;;;;;;;;;;;;;;;;;;5027151;28;19956;-60
2022/08/19 08:31:54;;;;;;;;;;;;;;;;;;5033587;28;19936;-60
2022/08/19 08:34:19;;;;;;;;;;;;;;;;;;5033902;28;20303;-60
2022/08/19 08:36:46;;;;;;;;;;;;;;;;;;5027953;28;19982;-59
2022/08/19 08:39:12;;;;;;;;;;;;;;;;;;5023794;28;20040;-59
2022/08/19 08:41:38;;;;;;;;;;;;;;;;;;5022912;28;20008;-59
2022/08/19 08:44:04;;;;;;;;;;;;;;;;;;5024376;28;19925;-59
2022/08/19 08:46:31;;;;;;;;;;;;;;;;;;5023432;28;20442;-59
2022/08/19 08:48:57;;;;;;;;;;;;;;;;;;5023563;28;20433;-59
2022/08/19 08:51:23;;;;;;;;;;;;;;;;;;5023551;28;19968;-59
2022/08/19 08:53:49;;;;;;;;;;;;;;;;;;5023643;28;20034;-59
2022/08/19 08:56:15;;;;;;;;;;;;;;;;;;5022422;28;20024;-59
2022/08/19 08:58:41;;;;;;;;;;;;;;;;;;5023826;28;20012;-60
2022/08/19 09:01:07;;;;;;;;;;;;;;;;;;5024286;28;21171;-60
2022/08/19 09:03:33;;;;;;;;;;;;;;;;;;5023392;28;20486;-59
2022/08/19 09:05:59;;;;;;;;;;;;;;;;;;5023710;28;19952;-59
2022/08/19 09:08:25;;;;;;;;;;;;;;;;;;5023418;28;19925;-59
2022/08/19 09:10:51;;;;;;;;;;;;;;;;;;5022822;28;20081;-60
2022/08/19 09:13:17;;;;;;;;;;;;;;;;;;5022738;28;19936;-60
2022/08/19 09:15:44;;;;;;;;;;;;;;;;;;5023526;28;19925;-60
2022/08/19 09:18:10;;;;;;;;;;;;;;;;;;5023313;28;19965;-60
2022/08/19 09:20:36;;;;;;;;;;;;;;;;;;5023796;28;19929;-59
2022/08/19 09:23:02;;;;;;;;;;;;;;;;;;5023351;28;19932;-60
2022/08/19 09:25:28;;;;;;;;;;;;;;;;;;5022230;28;19925;-60
2022/08/19 09:27:56;;;;;;;;;;;;;;;;;;5022720;28;20396;-60
2022/08/19 09:30:22;;;;;;;;;;;;;;;;;;5023212;28;19921;-60
2022/08/19 09:32:48;;;;;;;;;;;;;;;;;;5023180;28;20610;-60
2022/08/19 09:35:14;;;;;;;;;;;;;;;;;;5023085;28;19921;-60
2022/08/19 09:37:40;;;;;;;;;;;;;;;;;;5027384;28;19925;-60
2022/08/19 09:40:06;;;;;;;;;;;;;;;;;;5038089;28;20138;-59
2022/08/19 09:42:33;;;;;;;;;;;;;;;;;;5044189;28;19925;-59
2022/08/19 09:44:59;;;;;;;;;;;;;;;;;;5045019;28;20066;-60
2022/08/19 09:47:25;;;;;;;;;;;;;;;;;;5044956;28;20025;-60
2022/08/19 09:49:51;;;;;;;;;;;;;;;;;;5044907;28;19924;-60
2022/08/19 09:52:18;;;;;;;;;;;;;;;;;;5044531;28;20066;-60
2022/08/19 09:54:44;;;;;;;;;;;;;;;;;;5043999;28;19925;-60
2022/08/19 09:57:10;;;;;;;;;;;;;;;;;;5044208;28;19936;-60
2022/08/19 09:59:36;;;;;;;;;;;;;;;;;;5044157;28;19974;-60
2022/08/19 10:02:02;;;;;;;;;;;;;;;;;;5044230;28;19925;-60
2022/08/19 10:05:47;;;;;;;;;;;;;;;;;;5044855;28;19947;-60
2022/08/19 10:07:14;;;;;;;;;;;;;;;;;;5044124;28;20012;-60
2022/08/19 10:09:40;;;;;;;;;;;;;;;;;;5043888;28;19929;-61
2022/08/19 10:12:06;;;;;;;;;;;;;;;;;;5044714;28;19929;-61
2022/08/19 10:14:32;;;;;;;;;;;;;;;;;;5044439;28;19936;-60
2022/08/19 10:17:00;;;;;;;;;;;;;;;;;;5044538;28;20273;-60
2022/08/19 10:19:26;;;;;;;;;;;;;;;;;;5044173;28;20105;-60
2022/08/19 10:21:52;;;;;;;;;;;;;;;;;;5043948;28;19982;-60
2022/08/19 10:24:19;;;;;;;;;;;;;;;;;;5043552;28;20001;-60
2022/08/19 10:26:47;;;;;;;;;;;;;;;;;;5044158;28;19931;-60
2022/08/19 10:29:15;;;;;;;;;;;;;;;;;;5026097;28;20008;-60
2022/08/19 10:31:41;;;;;;;;;;;;;;;;;;5044142;28;19928;-61
2022/08/19 10:34:07;;;;;;;;;;;;;;;;;;5044367;28;19925;-60
2022/08/19 10:36:34;;;;;;;;;;;;;;;;;;5043600;28;19925;-60
2022/08/19 10:39:01;;;;;;;;;;;;;;;;;;5043826;28;19947;-60
2022/08/19 10:41:27;;;;;;;;;;;;;;;;;;5043755;28;20372;-60
2022/08/19 10:43:54;;;;;;;;;;;;;;;;;;5044097;28;19925;-60
2022/08/19 10:46:20;;;;;;;;;;;;;;;;;;5043745;28;20435;-60
2022/08/19 10:48:46;;;;;;;;;;;;;;;;;;5044087;28;19928;-60
2022/08/19 10:53:57;;;;;;;;;;;;;;;;;;5044120;28;20004;-60
2022/08/19 10:59:08;;;;;;;;;;;;;;;;;;5044210;28;19924;-60
2022/08/19 11:01:34;;;;;;;;;;;;;;;;;;5044505;28;19931;-60
2022/08/19 11:04:00;;;;;;;;;;;;;;;;;;5044097;28;19925;-60
2022/08/19 11:06:26;;;;;;;;;;;;;;;;;;5043854;28;20489;-60
2022/08/19 11:08:52;;;;;;;;;;;;;;;;;;5044049;28;20011;-61
2022/08/19 11:11:18;;;;;;;;;;;;;;;;;;5027921;28;19928;-61
2022/08/19 11:13:45;;;;;;;;;;;;;;;;;;5047795;28;20350;-61
2022/08/19 11:16:13;;;;;;;;;;;;;;;;;;5047651;28;19924;-61
2022/08/19 11:18:39;;;;;;;;;;;;;;;;;;5048379;28;19925;-62
2022/08/19 11:21:05;;;;;;;;;;;;;;;;;;5048128;28;19931;-61
2022/08/19 11:23:31;;;;;;;;;;;;;;;;;;5047527;28;19931;-61
2022/08/19 11:25:58;;;;;;;;;;;;;;;;;;5046818;28;19924;-61
2022/08/19 11:28:24;;;;;;;;;;;;;;;;;;5047156;28;19944;-61
2022/08/19 11:30:50;;;;;;;;;;;;;;;;;;5047809;28;19993;-61
2022/08/19 11:33:16;;;;;;;;;;;;;;;;;;5047577;28;20000;-61
2022/08/19 11:35:42;;;;;;;;;;;;;;;;;;5047647;28;19931;-61
2022/08/19 11:38:08;;;;;;;;;;;;;;;;;;5047841;28;20330;-61
2022/08/19 11:40:34;;;;;;;;;;;;;;;;;;5047091;28;19935;-61
2022/08/19 11:43:00;;;;;;;;;;;;;;;;;;5046648;28;19924;-61
2022/08/19 11:45:26;;;;;;;;;;;;;;;;;;5047102;28;19932;-61
2022/08/19 11:47:52;;;;;;;;;;;;;;;;;;5047472;28;19947;-61
2022/08/19 11:50:18;;;;;;;;;;;;;;;;;;5047266;28;19931;-61
2022/08/19 11:52:44;;;;;;;;;;;;;;;;;;5029484;28;19998;-61
2022/08/19 11:55:10;;;;;;;;;;;;;;;;;;5046191;28;19986;-61
2022/08/19 11:57:36;;;;;;;;;;;;;;;;;;5046816;28;19925;-61
2022/08/19 12:00:03;;;;;;;;;;;;;;;;;;5047283;28;20008;-61
2022/08/19 12:02:29;;;;;;;;;;;;;;;;;;5046907;28;19929;-61
2022/08/19 12:04:55;;;;;;;;;;;;;;;;;;5046898;28;20393;-61
2022/08/19 12:07:21;;;;;;;;;;;;;;;;;;5046742;28;19925;-61
2022/08/19 12:09:47;;;;;;;;;;;;;;;;;;5046105;28;19931;-60
2022/08/19 12:12:13;;;;;;;;;;;;;;;;;;5028038;28;19961;-60
2022/08/19 12:14:39;;;;;;;;;;;;;;;;;;5047015;28;19968;-61
2022/08/19 12:17:07;;;;;;;;;;;;;;;;;;5046994;28;20317;-60
2022/08/19 12:19:33;;;;;;;;;;;;;;;;;;5046700;28;19976;-59
2022/08/19 12:22:01;;;;;;;;;;;;;;;;;;5039391;28;19976;-60
2022/08/19 12:24:27;;;;;;;;;;;;;;;;;;5040346;28;20028;-60
2022/08/19 12:26:55;;;;;;;;;;;;;;;;;;5029368;28;20007;-60
2022/08/19 12:29:21;;;;;;;;;;;;;;;;;;5039615;28;19980;-60
2022/08/19 12:31:47;;;;;;;;;;;;;;;;;;5032542;28;19999;-60
2022/08/19 12:34:13;;;;;;;;;;;;;;;;;;5040463;28;19987;-60
2022/08/19 12:36:39;;;;;;;;;;;;;;;;;;5024459;28;19929;-61
2022/08/19 12:39:06;;;;;;;;;;;;;;;;;;5023520;28;19929;-61
2022/08/19 12:41:32;;;;;;;;;;;;;;;;;;5027033;28;19932;-60
2022/08/19 12:43:58;;;;;;;;;;;;;;;;;;5042906;28;19924;-60
2022/08/19 12:46:24;;;;;;;;;;;;;;;;;;5041949;28;19936;-61
2022/08/19 12:48:52;;;;;;;;;;;;;;;;;;5042516;28;19932;-60
2022/08/19 12:51:19;;;;;;;;;;;;;;;;;;5039679;28;19933;-61
2022/08/19 12:53:45;;;;;;;;;;;;;;;;;;5023374;28;20392;-60
2022/08/19 12:56:11;;;;;;;;;;;;;;;;;;5039418;28;19928;-61
2022/08/19 12:58:37;;;;;;;;;;;;;;;;;;5030734;28;20512;-61
2022/08/19 13:01:04;;;;;;;;;;;;;;;;;;5023857;28;20361;-61
2022/08/19 13:03:30;;;;;;;;;;;;;;;;;;5023517;28;20024;-60
2022/08/19 13:05:56;;;;;;;;;;;;;;;;;;5038833;28;20015;-60
2022/08/19 13:08:22;;;;;;;;;;;;;;;;;;5035569;28;21216;-60
2022/08/19 13:10:48;;;;;;;;;;;;;;;;;;5022109;28;19925;-60
2022/08/19 13:13:14;;;;;;;;;;;;;;;;;;5023037;28;20020;-60
2022/08/19 13:15:40;;;;;;;;;;;;;;;;;;5037738;28;19925;-60
2022/08/19 13:18:06;;;;;;;;;;;;;;;;;;5042154;28;20022;-60
2022/08/19 13:20:32;;;;;;;;;;;;;;;;;;5041490;28;19975;-60
2022/08/19 13:22:58;;;;;;;;;;;;;;;;;;5041907;28;19972;-59
2022/08/19 13:25:25;;;;;;;;;;;;;;;;;;5027053;28;20095;-58
2022/08/19 13:27:51;;;;;;;;;;;;;;;;;;5035969;28;19924;-58
2022/08/19 13:33:10;;;;;;;;;;;;;;;;;;5041056;28;19928;-58
2022/08/19 13:35:36;;;;;;;;;;;;;;;;;;5024764;28;20442;-58
2022/08/19 13:38:04;;;;;;;;;;;;;;;;;;5022986;28;19932;-58
2022/08/19 13:40:31;;;;;;;;;;;;;;;;;;5020403;28;19929;-59
2022/08/19 13:42:57;;;;;;;;;;;;;;;;;;5023113;28;20299;-59
2022/08/19 13:45:24;;;;;;;;;;;;;;;;;;5028633;28;19955;-59
2022/08/19 13:47:50;;;;;;;;;;;;;;;;;;5023172;28;19925;-59
2022/08/19 13:50:16;;;;;;;;;;;;;;;;;;5029577;28;19929;-58
2022/08/19 13:52:42;;;;;;;;;;;;;;;;;;5031768;28;20399;-59
2022/08/19 13:55:08;;;;;;;;;;;;;;;;;;5038928;28;20002;-59
2022/08/19 13:57:34;;;;;;;;;;;;;;;;;;5041416;28;20386;-59
2022/08/19 14:00:00;;;;;;;;;;;;;;;;;;5040816;28;19932;-59
2022/08/19 14:02:26;;;;;;;;;;;;;;;;;;5027573;28;19968;-59
2022/08/19 14:04:52;;;;;;;;;;;;;;;;;;5023842;28;19976;-59
2022/08/19 14:07:18;;;;;;;;;;;;;;;;;;5022545;28;19991;-59
2022/08/19 14:09:44;;;;;;;;;;;;;;;;;;5021444;28;19927;-59
2022/08/19 14:12:10;;;;;;;;;;;;;;;;;;5022340;28;19933;-59
2022/08/19 14:14:36;;;;;;;;;;;;;;;;;;5037784;28;19948;-59
2022/08/19 14:17:02;;;;;;;;;;;;;;;;;;5039750;28;19972;-59
2022/08/19 14:19:28;;;;;;;;;;;;;;;;;;5040112;28;19940;-59
2022/08/19 14:21:56;;;;;;;;;;;;;;;;;;5040538;28;19929;-58
2022/08/19 14:24:22;;;;;;;;;;;;;;;;;;5032209;28;19948;-59
2022/08/19 14:26:48;;;;;;;;;;;;;;;;;;5035308;28;19929;-59
2022/08/19 14:29:14;;;;;;;;;;;;;;;;;;5010960;28;19929;-58
2022/08/19 14:31:42;;;;;;;;;;;;;;;;;;5023305;28;20468;-59
2022/08/19 14:34:09;;;;;;;;;;;;;;;;;;5029135;28;20578;-59
2022/08/19 14:36:35;;;;;;;;;;;;;;;;;;5028778;28;19936;-59
2022/08/19 14:39:01;;;;;;;;;;;;;;;;;;5034772;28;19979;-59
2022/08/19 14:41:27;;;;;;;;;;;;;;;;;;5025573;28;20007;-59
2022/08/19 14:43:53;;;;;;;;;;;;;;;;;;5035388;28;19941;-59
2022/08/19 14:46:20;;;;;;;;;;;;;;;;;;5044987;28;19929;-59
2022/08/19 14:48:46;;;;;;;;;;;;;;;;;;5038948;28;20378;-61
2022/08/19 14:51:12;;;;;;;;;;;;;;;;;;5029747;28;20535;-59
2022/08/19 14:53:38;;;;;;;;;;;;;;;;;;5042089;28;20003;-59
2022/08/19 14:56:04;;;;;;;;;;;;;;;;;;5041628;28;20294;-60
2022/08/19 14:58:30;;;;;;;;;;;;;;;;;;5042121;28;20599;-60
2022/08/19 15:00:56;;;;;;;;;;;;;;;;;;5041819;28;19932;-60
2022/08/19 15:03:22;;;;;;;;;;;;;;;;;;5029327;28;20016;-60
2022/08/19 15:05:48;;;;;;;;;;;;;;;;;;5024052;28;19980;-60
2022/08/19 15:08:14;;;;;;;;;;;;;;;;;;5023705;28;19937;-60
2022/08/19 15:10:40;;;;;;;;;;;;;;;;;;5023013;28;19925;-60
2022/08/19 15:13:07;;;;;;;;;;;;;;;;;;5023932;28;19933;-60
2022/08/19 15:15:33;;;;;;;;;;;;;;;;;;5030693;28;20016;-60
2022/08/19 15:18:02;;;;;;;;;;;;;;;;;;5042421;28;20694;-60
2022/08/19 15:20:28;;;;;;;;;;;;;;;;;;5041951;28;20394;-60
2022/08/19 15:22:54;;;;;;;;;;;;;;;;;;5041509;28;19979;-60
2022/08/19 15:25:20;;;;;;;;;;;;;;;;;;5036655;28;19924;-60
2022/08/19 15:27:46;;;;;;;;;;;;;;;;;;5042375;28;19936;-60
2022/08/19 15:30:12;;;;;;;;;;;;;;;;;;5041498;28;19955;-60
2022/08/19 15:32:38;;;;;;;;;;;;;;;;;;5042699;28;20024;-60
2022/08/19 15:35:05;;;;;;;;;;;;;;;;;;5034530;28;19975;-60
2022/08/19 15:37:31;;;;;;;;;;;;;;;;;;5023270;28;19925;-60
2022/08/19 15:39:57;;;;;;;;;;;;;;;;;;5023287;28;19921;-60
2022/08/19 15:42:23;;;;;;;;;;;;;;;;;;5036330;28;19970;-60
2022/08/19 15:44:50;;;;;;;;;;;;;;;;;;5035989;28;20743;-60
2022/08/19 15:47:18;;;;;;;;;;;;;;;;;;5005494;28;20391;-60
2022/08/19 15:49:44;;;;;;;;;;;;;;;;;;5023965;28;19933;-60
2022/08/19 15:52:10;;;;;;;;;;;;;;;;;;5030151;28;19925;-60
2022/08/19 15:54:36;;;;;;;;;;;;;;;;;;5022990;28;19925;-60
2022/08/19 16:08:00;;;;;;;;;;;;;;;;;;5029192;28;19925;-60
2022/08/19 16:10:26;;;;;;;;;;;;;;;;;;5036356;28;19928;-60
2022/08/19 16:12:52;;;;;;;;;;;;;;;;;;5042307;28;20397;-60
2022/08/19 16:15:19;;;;;;;;;;;;;;;;;;5043781;28;19925;-60
2022/08/19 16:17:46;;;;;;;;;;;;;;;;;;5044965;28;19931;-60
2022/08/19 16:20:12;;;;;;;;;;;;;;;;;;5044724;28;20427;-60
2022/08/19 16:22:38;;;;;;;;;;;;;;;;;;5044547;28;20477;-60
2022/08/19 16:25:04;;;;;;;;;;;;;;;;;;5044794;28;19925;-60
2022/08/19 16:27:30;;;;;;;;;;;;;;;;;;5044913;28;19925;-60
2022/08/19 16:29:56;;;;;;;;;;;;;;;;;;5045046;28;20082;-59
2022/08/19 16:32:22;;;;;;;;;;;;;;;;;;5042340;28;19933;-60
2022/08/19 16:34:48;;;;;;;;;;;;;;;;;;5026043;28;20597;-60
2022/08/19 16:37:15;;;;;;;;;;;;;;;;;;5026136;28;20292;-60
2022/08/19 16:39:41;;;;;;;;;;;;;;;;;;5025524;28;19969;-60
2022/08/19 16:42:07;;;;;;;;;;;;;;;;;;5030099;28;19929;-60
2022/08/19 16:44:33;;;;;;;;;;;;;;;;;;5044303;28;19925;-60
2022/08/19 16:46:59;;;;;;;;;;;;;;;;;;5044614;28;20504;-60
2022/08/19 16:49:25;;;;;;;;;;;;;;;;;;5033106;28;20012;-60
2022/08/19 16:51:51;;;;;;;;;;;;;;;;;;5041042;28;19988;-60
2022/08/19 16:54:17;;;;;;;;;;;;;;;;;;5043588;28;19968;-60
2022/08/19 16:56:43;;;;;;;;;;;;;;;;;;5044510;28;19944;-60
2022/08/19 16:59:09;;;;;;;;;;;;;;;;;;5026551;28;19924;-61
2022/08/19 17:01:35;;;;;;;;;;;;;;;;;;5024272;28;19937;-60
2022/08/19 17:04:01;;;;;;;;;;;;;;;;;;5026152;28;20287;-60
2022/08/19 17:06:28;;;;;;;;;;;;;;;;;;5025827;28;19987;-60
2022/08/19 17:08:54;;;;;;;;;;;;;;;;;;5024674;28;20029;-60
2022/08/19 17:11:20;;;;;;;;;;;;;;;;;;5026604;28;19979;-60
2022/08/19 17:13:46;;;;;;;;;;;;;;;;;;5025308;28;19925;-60
2022/08/19 17:16:12;;;;;;;;;;;;;;;;;;5025144;28;20000;-60
2022/08/19 17:18:38;;;;;;;;;;;;;;;;;;5026237;28;19932;-60
2022/08/19 17:21:04;;;;;;;;;;;;;;;;;;5027664;28;19925;-60